sensor_id;sensor_type;location;lat;lon;timestamp;P1;durP1;ratioP1;P2;durP2;ratioP2
1204;SDS011;592;48.764;9.174;2022-11-20T00:00:39;7.20;;;4.37;;
1204;SDS011;592;48.764;9.174;2022-11-20T00:03:06;6.50;;;4.10;;
1204;SDS011;592;48.764;9.174;2022-11-20T00:05:32;8.17;;;4.40;;
1204;SDS011;592;48.764;9.174;2022-11-20T00:07:59;6.17;;;3.90;;
1204;SDS011;592;48.764;9.174;2022-11-20T00:10:26;6.77;;;3.57;;
1204;SDS011;592;48.764;9.174;2022-11-20T00:12:53;5.80;;;3.73;;
1204;SDS011;592;48.764;9.174;2022-11-20T00:15:21;6.37;;;3.93;;
1204;SDS011;592;48.764;9.174;2022-11-20T00:17:48;6.50;;;3.83;;
1204;SDS011;592;48.764;9.174;2022-11-20T00:20:14;7.63;;;4.10;;
1204;SDS011;592;48.764;9.174;2022-11-20T00:22:41;7.63;;;3.77;;
1204;SDS011;592;48.764;9.174;2022-11-20T00:25:08;9.27;;;4.30;;
1204;SDS011;592;48.764;9.174;2022-11-20T00:27:36;7.27;;;4.07;;
1204;SDS011;592;48.764;9.174;2022-11-20T00:30:03;7.33;;;4.10;;
1204;SDS011;592;48.764;9.174;2022-11-20T00:32:31;8.33;;;3.80;;
1204;SDS011;592;48.764;9.174;2022-11-20T00:34:58;7.77;;;3.63;;
1204;SDS011;592;48.764;9.174;2022-11-20T00:37:25;6.17;;;3.43;;
1204;SDS011;592;48.764;9.174;2022-11-20T00:39:52;6.60;;;3.87;;
1204;SDS011;592;48.764;9.174;2022-11-20T00:42:19;6.63;;;3.80;;
1204;SDS011;592;48.764;9.174;2022-11-20T00:44:46;5.90;;;3.80;;
1204;SDS011;592;48.764;9.174;2022-11-20T00:47:13;6.70;;;4.17;;
1204;SDS011;592;48.764;9.174;2022-11-20T00:49:41;7.43;;;3.87;;
1204;SDS011;592;48.764;9.174;2022-11-20T00:52:07;6.20;;;3.63;;
1204;SDS011;592;48.764;9.174;2022-11-20T00:54:34;6.90;;;3.60;;
1204;SDS011;592;48.764;9.174;2022-11-20T00:57:01;6.30;;;3.93;;
1204;SDS011;592;48.764;9.174;2022-11-20T00:59:27;6.77;;;3.80;;
1204;SDS011;592;48.764;9.174;2022-11-20T01:01:54;7.00;;;3.97;;
1204;SDS011;592;48.764;9.174;2022-11-20T01:04:21;6.00;;;3.67;;
1204;SDS011;592;48.764;9.174;2022-11-20T01:06:49;6.63;;;3.80;;
1204;SDS011;592;48.764;9.174;2022-11-20T01:09:16;5.50;;;3.30;;
1204;SDS011;592;48.764;9.174;2022-11-20T01:11:43;9.13;;;3.63;;
1204;SDS011;592;48.764;9.174;2022-11-20T01:14:11;6.17;;;3.17;;
1204;SDS011;592;48.764;9.174;2022-11-20T01:16:40;6.77;;;3.60;;
1204;SDS011;592;48.764;9.174;2022-11-20T01:19:09;6.57;;;3.77;;
1204;SDS011;592;48.764;9.174;2022-11-20T01:21:39;5.00;;;3.10;;
1204;SDS011;592;48.764;9.174;2022-11-20T01:24:10;6.87;;;3.60;;
1204;SDS011;592;48.764;9.174;2022-11-20T01:26:38;6.50;;;3.13;;
1204;SDS011;592;48.764;9.174;2022-11-20T01:29:06;5.70;;;3.03;;
1204;SDS011;592;48.764;9.174;2022-11-20T01:31:37;5.10;;;2.87;;
1204;SDS011;592;48.764;9.174;2022-11-20T01:34:04;7.50;;;3.47;;
1204;SDS011;592;48.764;9.174;2022-11-20T01:36:33;6.50;;;3.80;;
1204;SDS011;592;48.764;9.174;2022-11-20T01:39:03;6.87;;;3.20;;
1204;SDS011;592;48.764;9.174;2022-11-20T01:41:33;4.40;;;2.93;;
1204;SDS011;592;48.764;9.174;2022-11-20T01:44:18;6.87;;;3.13;;
1204;SDS011;592;48.764;9.174;2022-11-20T01:46:49;5.97;;;2.60;;
1204;SDS011;592;48.764;9.174;2022-11-20T01:49:21;5.63;;;2.87;;
1204;SDS011;592;48.764;9.174;2022-11-20T01:51:53;6.53;;;3.00;;
1204;SDS011;592;48.764;9.174;2022-11-20T01:54:24;4.60;;;2.73;;
1204;SDS011;592;48.764;9.174;2022-11-20T01:56:57;5.73;;;3.10;;
1204;SDS011;592;48.764;9.174;2022-11-20T01:59:26;5.90;;;3.10;;
1204;SDS011;592;48.764;9.174;2022-11-20T02:01:55;6.53;;;3.03;;
1204;SDS011;592;48.764;9.174;2022-11-20T02:04:22;5.00;;;2.90;;
1204;SDS011;592;48.764;9.174;2022-11-20T02:06:51;8.03;;;3.17;;
1204;SDS011;592;48.764;9.174;2022-11-20T02:09:21;5.23;;;3.10;;
1204;SDS011;592;48.764;9.174;2022-11-20T02:11:47;7.00;;;3.37;;
1204;SDS011;592;48.764;9.174;2022-11-20T02:14:16;5.67;;;3.00;;
1204;SDS011;592;48.764;9.174;2022-11-20T02:16:43;5.20;;;2.83;;
1204;SDS011;592;48.764;9.174;2022-11-20T02:19:13;7.10;;;3.47;;
1204;SDS011;592;48.764;9.174;2022-11-20T02:21:53;7.30;;;3.20;;
1204;SDS011;592;48.764;9.174;2022-11-20T02:24:27;5.93;;;3.20;;
1204;SDS011;592;48.764;9.174;2022-11-20T02:26:54;4.30;;;2.60;;
1204;SDS011;592;48.764;9.174;2022-11-20T02:29:25;5.43;;;2.87;;
1204;SDS011;592;48.764;9.174;2022-11-20T02:31:56;5.23;;;2.70;;
1204;SDS011;592;48.764;9.174;2022-11-20T02:34:25;4.70;;;2.53;;
1204;SDS011;592;48.764;9.174;2022-11-20T02:36:51;6.13;;;3.03;;
1204;SDS011;592;48.764;9.174;2022-11-20T02:39:19;4.83;;;2.67;;
1204;SDS011;592;48.764;9.174;2022-11-20T02:41:49;4.40;;;2.70;;
1204;SDS011;592;48.764;9.174;2022-11-20T02:44:15;5.80;;;2.90;;
1204;SDS011;592;48.764;9.174;2022-11-20T02:46:42;5.33;;;2.83;;
1204;SDS011;592;48.764;9.174;2022-11-20T02:49:09;5.33;;;3.07;;
1204;SDS011;592;48.764;9.174;2022-11-20T02:51:36;5.20;;;3.37;;
1204;SDS011;592;48.764;9.174;2022-11-20T02:54:02;9.17;;;3.47;;
1204;SDS011;592;48.764;9.174;2022-11-20T02:56:29;7.57;;;3.40;;
1204;SDS011;592;48.764;9.174;2022-11-20T02:58:58;5.70;;;3.30;;
1204;SDS011;592;48.764;9.174;2022-11-20T03:01:24;5.90;;;3.23;;
1204;SDS011;592;48.764;9.174;2022-11-20T03:03:51;6.90;;;4.00;;
1204;SDS011;592;48.764;9.174;2022-11-20T03:06:19;7.40;;;3.50;;
1204;SDS011;592;48.764;9.174;2022-11-20T03:08:46;9.97;;;3.87;;
1204;SDS011;592;48.764;9.174;2022-11-20T03:11:13;5.80;;;3.00;;
1204;SDS011;592;48.764;9.174;2022-11-20T03:13:39;6.43;;;3.57;;
1204;SDS011;592;48.764;9.174;2022-11-20T03:16:11;7.70;;;3.70;;
1204;SDS011;592;48.764;9.174;2022-11-20T03:18:40;7.67;;;3.47;;
1204;SDS011;592;48.764;9.174;2022-11-20T03:21:07;8.57;;;4.10;;
1204;SDS011;592;48.764;9.174;2022-11-20T03:23:35;5.93;;;3.40;;
1204;SDS011;592;48.764;9.174;2022-11-20T03:26:11;5.60;;;3.60;;
1204;SDS011;592;48.764;9.174;2022-11-20T03:28:40;5.80;;;3.67;;
1204;SDS011;592;48.764;9.174;2022-11-20T03:31:08;7.40;;;4.00;;
1204;SDS011;592;48.764;9.174;2022-11-20T03:33:38;6.70;;;4.20;;
1204;SDS011;592;48.764;9.174;2022-11-20T03:36:06;7.00;;;3.90;;
1204;SDS011;592;48.764;9.174;2022-11-20T03:38:34;6.93;;;3.90;;
1204;SDS011;592;48.764;9.174;2022-11-20T03:41:02;6.93;;;3.83;;
1204;SDS011;592;48.764;9.174;2022-11-20T03:43:30;7.70;;;3.70;;
1204;SDS011;592;48.764;9.174;2022-11-20T03:45:57;7.83;;;4.40;;
1204;SDS011;592;48.764;9.174;2022-11-20T03:48:25;6.67;;;4.20;;
1204;SDS011;592;48.764;9.174;2022-11-20T03:50:52;7.43;;;4.53;;
1204;SDS011;592;48.764;9.174;2022-11-20T03:53:31;8.00;;;4.23;;
1204;SDS011;592;48.764;9.174;2022-11-20T03:55:58;6.10;;;4.00;;
1204;SDS011;592;48.764;9.174;2022-11-20T03:58:25;7.17;;;3.80;;
1204;SDS011;592;48.764;9.174;2022-11-20T04:00:52;6.30;;;3.93;;
1204;SDS011;592;48.764;9.174;2022-11-20T04:03:18;7.00;;;4.23;;
1204;SDS011;592;48.764;9.174;2022-11-20T04:05:46;7.80;;;4.20;;
1204;SDS011;592;48.764;9.174;2022-11-20T04:08:13;6.77;;;4.20;;
1204;SDS011;592;48.764;9.174;2022-11-20T04:10:40;7.33;;;4.43;;
1204;SDS011;592;48.764;9.174;2022-11-20T04:13:07;6.03;;;3.90;;
1204;SDS011;592;48.764;9.174;2022-11-20T04:15:33;5.40;;;3.43;;
1204;SDS011;592;48.764;9.174;2022-11-20T04:18:00;6.10;;;3.80;;
1204;SDS011;592;48.764;9.174;2022-11-20T04:20:27;7.00;;;3.73;;
1204;SDS011;592;48.764;9.174;2022-11-20T04:22:55;5.60;;;3.87;;
1204;SDS011;592;48.764;9.174;2022-11-20T04:25:21;10.70;;;4.27;;
1204;SDS011;592;48.764;9.174;2022-11-20T04:27:48;6.53;;;4.00;;
1204;SDS011;592;48.764;9.174;2022-11-20T04:30:15;10.60;;;3.93;;
1204;SDS011;592;48.764;9.174;2022-11-20T04:32:42;6.73;;;4.20;;
1204;SDS011;592;48.764;9.174;2022-11-20T04:35:08;6.30;;;3.90;;
1204;SDS011;592;48.764;9.174;2022-11-20T04:37:35;6.90;;;4.00;;
1204;SDS011;592;48.764;9.174;2022-11-20T04:40:04;9.23;;;4.03;;
1204;SDS011;592;48.764;9.174;2022-11-20T04:42:31;7.80;;;4.07;;
1204;SDS011;592;48.764;9.174;2022-11-20T04:44:58;7.97;;;4.57;;
1204;SDS011;592;48.764;9.174;2022-11-20T04:47:24;7.20;;;4.80;;
1204;SDS011;592;48.764;9.174;2022-11-20T04:49:51;8.07;;;4.53;;
1204;SDS011;592;48.764;9.174;2022-11-20T04:52:18;6.97;;;4.07;;
1204;SDS011;592;48.764;9.174;2022-11-20T04:54:45;6.77;;;4.13;;
1204;SDS011;592;48.764;9.174;2022-11-20T04:57:14;5.93;;;3.90;;
1204;SDS011;592;48.764;9.174;2022-11-20T04:59:41;7.70;;;4.43;;
1204;SDS011;592;48.764;9.174;2022-11-20T05:02:08;6.27;;;3.70;;
1204;SDS011;592;48.764;9.174;2022-11-20T05:04:35;8.50;;;3.60;;
1204;SDS011;592;48.764;9.174;2022-11-20T05:07:01;8.47;;;3.87;;
1204;SDS011;592;48.764;9.174;2022-11-20T05:09:29;6.17;;;3.60;;
1204;SDS011;592;48.764;9.174;2022-11-20T05:11:56;6.37;;;3.80;;
1204;SDS011;592;48.764;9.174;2022-11-20T05:14:24;8.00;;;3.70;;
1204;SDS011;592;48.764;9.174;2022-11-20T05:16:51;7.37;;;3.40;;
1204;SDS011;592;48.764;9.174;2022-11-20T05:19:18;5.57;;;3.43;;
1204;SDS011;592;48.764;9.174;2022-11-20T05:21:44;6.47;;;3.63;;
1204;SDS011;592;48.764;9.174;2022-11-20T05:24:11;6.73;;;4.00;;
1204;SDS011;592;48.764;9.174;2022-11-20T05:26:38;7.50;;;3.40;;
1204;SDS011;592;48.764;9.174;2022-11-20T05:29:05;8.00;;;3.60;;
1204;SDS011;592;48.764;9.174;2022-11-20T05:31:33;6.40;;;3.53;;
1204;SDS011;592;48.764;9.174;2022-11-20T05:34:01;6.83;;;3.60;;
1204;SDS011;592;48.764;9.174;2022-11-20T05:36:27;7.10;;;3.83;;
1204;SDS011;592;48.764;9.174;2022-11-20T05:38:55;6.80;;;3.63;;
1204;SDS011;592;48.764;9.174;2022-11-20T05:41:22;7.23;;;3.73;;
1204;SDS011;592;48.764;9.174;2022-11-20T05:43:49;5.20;;;3.30;;
1204;SDS011;592;48.764;9.174;2022-11-20T05:46:17;6.60;;;3.87;;
1204;SDS011;592;48.764;9.174;2022-11-20T05:48:46;8.80;;;3.80;;
1204;SDS011;592;48.764;9.174;2022-11-20T05:51:14;5.30;;;3.63;;
1204;SDS011;592;48.764;9.174;2022-11-20T05:53:42;6.60;;;3.90;;
1204;SDS011;592;48.764;9.174;2022-11-20T05:56:10;7.80;;;4.53;;
1204;SDS011;592;48.764;9.174;2022-11-20T05:58:38;5.90;;;3.73;;
1204;SDS011;592;48.764;9.174;2022-11-20T06:01:06;13.13;;;3.30;;
1204;SDS011;592;48.764;9.174;2022-11-20T06:03:34;6.30;;;3.50;;
1204;SDS011;592;48.764;9.174;2022-11-20T06:06:03;5.17;;;3.30;;
1204;SDS011;592;48.764;9.174;2022-11-20T06:08:31;5.60;;;3.27;;
1204;SDS011;592;48.764;9.174;2022-11-20T06:10:58;6.40;;;3.50;;
1204;SDS011;592;48.764;9.174;2022-11-20T06:13:28;6.20;;;3.50;;
1204;SDS011;592;48.764;9.174;2022-11-20T06:15:55;8.37;;;3.97;;
1204;SDS011;592;48.764;9.174;2022-11-20T06:18:22;5.40;;;3.50;;
1204;SDS011;592;48.764;9.174;2022-11-20T06:20:48;6.57;;;3.63;;
1204;SDS011;592;48.764;9.174;2022-11-20T06:23:16;9.20;;;3.43;;
1204;SDS011;592;48.764;9.174;2022-11-20T06:25:43;6.23;;;4.13;;
1204;SDS011;592;48.764;9.174;2022-11-20T06:28:10;5.80;;;2.93;;
1204;SDS011;592;48.764;9.174;2022-11-20T06:30:37;4.80;;;2.83;;
1204;SDS011;592;48.764;9.174;2022-11-20T06:33:10;5.03;;;2.97;;
1204;SDS011;592;48.764;9.174;2022-11-20T06:35:37;6.07;;;3.47;;
1204;SDS011;592;48.764;9.174;2022-11-20T06:38:03;7.10;;;2.80;;
1204;SDS011;592;48.764;9.174;2022-11-20T06:40:31;5.00;;;2.90;;
1204;SDS011;592;48.764;9.174;2022-11-20T06:42:58;6.03;;;2.50;;
1204;SDS011;592;48.764;9.174;2022-11-20T06:45:25;7.77;;;2.80;;
1204;SDS011;592;48.764;9.174;2022-11-20T06:47:52;5.80;;;3.10;;
1204;SDS011;592;48.764;9.174;2022-11-20T06:50:18;5.67;;;2.60;;
1204;SDS011;592;48.764;9.174;2022-11-20T06:52:45;5.00;;;3.10;;
1204;SDS011;592;48.764;9.174;2022-11-20T06:55:12;6.17;;;2.80;;
1204;SDS011;592;48.764;9.174;2022-11-20T06:57:40;5.40;;;3.00;;
1204;SDS011;592;48.764;9.174;2022-11-20T07:00:07;4.93;;;2.90;;
1204;SDS011;592;48.764;9.174;2022-11-20T07:02:34;4.83;;;2.70;;
1204;SDS011;592;48.764;9.174;2022-11-20T07:05:01;4.90;;;2.77;;
1204;SDS011;592;48.764;9.174;2022-11-20T07:07:28;4.70;;;2.43;;
1204;SDS011;592;48.764;9.174;2022-11-20T07:09:55;6.03;;;2.50;;
1204;SDS011;592;48.764;9.174;2022-11-20T07:12:22;5.33;;;2.93;;
1204;SDS011;592;48.764;9.174;2022-11-20T07:14:50;8.97;;;3.50;;
1204;SDS011;592;48.764;9.174;2022-11-20T07:17:17;5.20;;;2.90;;
1204;SDS011;592;48.764;9.174;2022-11-20T07:19:43;5.60;;;3.40;;
1204;SDS011;592;48.764;9.174;2022-11-20T07:22:10;7.97;;;2.97;;
1204;SDS011;592;48.764;9.174;2022-11-20T07:24:37;8.70;;;3.27;;
1204;SDS011;592;48.764;9.174;2022-11-20T07:27:04;5.00;;;2.73;;
1204;SDS011;592;48.764;9.174;2022-11-20T07:29:30;8.57;;;3.53;;
1204;SDS011;592;48.764;9.174;2022-11-20T07:31:59;5.30;;;2.37;;
1204;SDS011;592;48.764;9.174;2022-11-20T07:34:26;5.13;;;2.90;;
1204;SDS011;592;48.764;9.174;2022-11-20T07:36:53;4.90;;;2.93;;
1204;SDS011;592;48.764;9.174;2022-11-20T07:39:19;6.03;;;2.40;;
1204;SDS011;592;48.764;9.174;2022-11-20T07:41:46;4.63;;;2.47;;
1204;SDS011;592;48.764;9.174;2022-11-20T07:44:13;4.67;;;2.67;;
1204;SDS011;592;48.764;9.174;2022-11-20T07:46:39;8.23;;;2.80;;
1204;SDS011;592;48.764;9.174;2022-11-20T07:49:08;5.20;;;2.60;;
1204;SDS011;592;48.764;9.174;2022-11-20T07:51:34;4.70;;;2.37;;
1204;SDS011;592;48.764;9.174;2022-11-20T07:54:01;4.13;;;2.13;;
1204;SDS011;592;48.764;9.174;2022-11-20T07:56:28;4.73;;;2.47;;
1204;SDS011;592;48.764;9.174;2022-11-20T07:58:55;4.70;;;2.30;;
1204;SDS011;592;48.764;9.174;2022-11-20T08:01:21;5.77;;;2.47;;
1204;SDS011;592;48.764;9.174;2022-11-20T08:03:48;5.13;;;2.00;;
1204;SDS011;592;48.764;9.174;2022-11-20T08:06:16;4.40;;;2.20;;
1204;SDS011;592;48.764;9.174;2022-11-20T08:08:44;7.40;;;2.70;;
1204;SDS011;592;48.764;9.174;2022-11-20T08:11:11;5.10;;;2.37;;
1204;SDS011;592;48.764;9.174;2022-11-20T08:13:55;4.43;;;2.30;;
1204;SDS011;592;48.764;9.174;2022-11-20T08:16:41;4.97;;;2.97;;
1204;SDS011;592;48.764;9.174;2022-11-20T08:19:13;5.03;;;2.70;;
1204;SDS011;592;48.764;9.174;2022-11-20T08:21:42;4.80;;;2.07;;
1204;SDS011;592;48.764;9.174;2022-11-20T08:24:09;4.90;;;2.43;;
1204;SDS011;592;48.764;9.174;2022-11-20T08:26:37;12.73;;;2.40;;
1204;SDS011;592;48.764;9.174;2022-11-20T08:29:05;4.83;;;2.20;;
1204;SDS011;592;48.764;9.174;2022-11-20T08:31:32;4.67;;;2.50;;
1204;SDS011;592;48.764;9.174;2022-11-20T08:33:59;3.87;;;1.90;;
1204;SDS011;592;48.764;9.174;2022-11-20T08:36:25;4.33;;;2.33;;
1204;SDS011;592;48.764;9.174;2022-11-20T08:38:55;4.37;;;2.03;;
1204;SDS011;592;48.764;9.174;2022-11-20T08:41:22;5.80;;;2.37;;
1204;SDS011;592;48.764;9.174;2022-11-20T08:43:52;4.30;;;2.47;;
1204;SDS011;592;48.764;9.174;2022-11-20T08:46:20;5.43;;;2.37;;
1204;SDS011;592;48.764;9.174;2022-11-20T08:48:48;6.73;;;1.80;;
1204;SDS011;592;48.764;9.174;2022-11-20T08:51:17;3.67;;;1.87;;
1204;SDS011;592;48.764;9.174;2022-11-20T08:53:45;3.93;;;1.90;;
1204;SDS011;592;48.764;9.174;2022-11-20T08:56:14;5.17;;;1.83;;
1204;SDS011;592;48.764;9.174;2022-11-20T08:58:41;4.67;;;2.00;;
1204;SDS011;592;48.764;9.174;2022-11-20T09:01:08;5.17;;;1.93;;
1204;SDS011;592;48.764;9.174;2022-11-20T09:03:35;4.13;;;2.20;;
1204;SDS011;592;48.764;9.174;2022-11-20T09:06:02;4.00;;;1.90;;
1204;SDS011;592;48.764;9.174;2022-11-20T09:08:30;3.60;;;1.80;;
1204;SDS011;592;48.764;9.174;2022-11-20T09:10:58;3.70;;;1.70;;
1204;SDS011;592;48.764;9.174;2022-11-20T09:13:27;3.33;;;1.77;;
1204;SDS011;592;48.764;9.174;2022-11-20T09:15:55;4.53;;;2.00;;
1204;SDS011;592;48.764;9.174;2022-11-20T09:18:22;3.50;;;1.60;;
1204;SDS011;592;48.764;9.174;2022-11-20T09:20:50;3.63;;;1.63;;
1204;SDS011;592;48.764;9.174;2022-11-20T09:23:16;3.43;;;1.40;;
1204;SDS011;592;48.764;9.174;2022-11-20T09:25:43;3.20;;;1.43;;
1204;SDS011;592;48.764;9.174;2022-11-20T09:28:10;3.53;;;1.70;;
1204;SDS011;592;48.764;9.174;2022-11-20T09:30:38;3.17;;;1.40;;
1204;SDS011;592;48.764;9.174;2022-11-20T09:33:05;3.80;;;1.33;;
1204;SDS011;592;48.764;9.174;2022-11-20T09:35:32;4.20;;;1.53;;
1204;SDS011;592;48.764;9.174;2022-11-20T09:38:03;3.33;;;1.20;;
1204;SDS011;592;48.764;9.174;2022-11-20T09:40:31;3.10;;;1.30;;
1204;SDS011;592;48.764;9.174;2022-11-20T09:42:59;3.80;;;1.13;;
1204;SDS011;592;48.764;9.174;2022-11-20T09:45:35;4.80;;;1.67;;
1204;SDS011;592;48.764;9.174;2022-11-20T09:48:17;3.27;;;1.30;;
1204;SDS011;592;48.764;9.174;2022-11-20T09:50:52;3.37;;;1.60;;
1204;SDS011;592;48.764;9.174;2022-11-20T09:53:24;3.63;;;1.67;;
1204;SDS011;592;48.764;9.174;2022-11-20T09:56:00;2.73;;;1.20;;
1204;SDS011;592;48.764;9.174;2022-11-20T09:58:29;2.77;;;1.00;;
1204;SDS011;592;48.764;9.174;2022-11-20T10:01:03;4.60;;;1.50;;
1204;SDS011;592;48.764;9.174;2022-11-20T10:03:37;3.60;;;1.60;;
1204;SDS011;592;48.764;9.174;2022-11-20T10:06:12;3.43;;;1.43;;
1204;SDS011;592;48.764;9.174;2022-11-20T10:08:44;3.50;;;1.50;;
1204;SDS011;592;48.764;9.174;2022-11-20T10:11:17;3.40;;;1.50;;
1204;SDS011;592;48.764;9.174;2022-11-20T10:13:52;3.47;;;1.53;;
1204;SDS011;592;48.764;9.174;2022-11-20T10:16:28;3.40;;;1.40;;
1204;SDS011;592;48.764;9.174;2022-11-20T10:19:08;3.10;;;1.27;;
1204;SDS011;592;48.764;9.174;2022-11-20T10:21:52;4.83;;;1.90;;
1204;SDS011;592;48.764;9.174;2022-11-20T10:24:39;3.23;;;1.43;;
1204;SDS011;592;48.764;9.174;2022-11-20T10:27:16;3.67;;;1.20;;
1204;SDS011;592;48.764;9.174;2022-11-20T10:30:02;3.50;;;1.23;;
1204;SDS011;592;48.764;9.174;2022-11-20T10:32:36;4.70;;;1.50;;
1204;SDS011;592;48.764;9.174;2022-11-20T10:35:06;4.13;;;1.87;;
1204;SDS011;592;48.764;9.174;2022-11-20T10:37:42;4.33;;;1.97;;
1204;SDS011;592;48.764;9.174;2022-11-20T10:40:17;3.27;;;1.20;;
1204;SDS011;592;48.764;9.174;2022-11-20T10:42:49;3.40;;;1.20;;
1204;SDS011;592;48.764;9.174;2022-11-20T10:45:22;3.80;;;1.73;;
1204;SDS011;592;48.764;9.174;2022-11-20T10:48:12;4.03;;;2.00;;
1204;SDS011;592;48.764;9.174;2022-11-20T10:50:49;4.90;;;2.60;;
1204;SDS011;592;48.764;9.174;2022-11-20T10:53:28;5.00;;;1.50;;
1204;SDS011;592;48.764;9.174;2022-11-20T10:56:13;4.37;;;1.70;;
1204;SDS011;592;48.764;9.174;2022-11-20T10:58:49;3.80;;;1.43;;
1204;SDS011;592;48.764;9.174;2022-11-20T11:01:26;3.20;;;1.50;;
1204;SDS011;592;48.764;9.174;2022-11-20T11:03:55;2.90;;;1.30;;
1204;SDS011;592;48.764;9.174;2022-11-20T11:06:25;3.77;;;1.30;;
1204;SDS011;592;48.764;9.174;2022-11-20T11:08:58;5.43;;;1.20;;
1204;SDS011;592;48.764;9.174;2022-11-20T11:11:30;4.83;;;1.53;;
1204;SDS011;592;48.764;9.174;2022-11-20T11:14:05;2.90;;;1.10;;
1204;SDS011;592;48.764;9.174;2022-11-20T11:16:34;3.97;;;1.57;;
1204;SDS011;592;48.764;9.174;2022-11-20T11:19:10;3.60;;;1.60;;
1204;SDS011;592;48.764;9.174;2022-11-20T11:21:38;3.50;;;1.50;;
1204;SDS011;592;48.764;9.174;2022-11-20T11:24:29;3.87;;;1.60;;
1204;SDS011;592;48.764;9.174;2022-11-20T11:26:57;3.03;;;1.37;;
1204;SDS011;592;48.764;9.174;2022-11-20T11:29:29;3.40;;;1.90;;
1204;SDS011;592;48.764;9.174;2022-11-20T11:32:05;4.20;;;2.70;;
1204;SDS011;592;48.764;9.174;2022-11-20T11:34:35;5.07;;;2.00;;
1204;SDS011;592;48.764;9.174;2022-11-20T11:37:01;3.47;;;1.83;;
1204;SDS011;592;48.764;9.174;2022-11-20T11:39:30;3.60;;;1.80;;
1204;SDS011;592;48.764;9.174;2022-11-20T11:41:58;5.23;;;2.20;;
1204;SDS011;592;48.764;9.174;2022-11-20T11:44:28;4.63;;;1.73;;
1204;SDS011;592;48.764;9.174;2022-11-20T11:47:26;4.03;;;1.87;;
1204;SDS011;592;48.764;9.174;2022-11-20T11:50:02;6.23;;;2.63;;
1204;SDS011;592;48.764;9.174;2022-11-20T11:52:41;4.10;;;1.80;;
1204;SDS011;592;48.764;9.174;2022-11-20T11:55:12;4.43;;;1.90;;
1204;SDS011;592;48.764;9.174;2022-11-20T11:57:44;7.60;;;2.30;;
1204;SDS011;592;48.764;9.174;2022-11-20T12:00:15;5.60;;;2.17;;
1204;SDS011;592;48.764;9.174;2022-11-20T12:02:48;4.27;;;1.80;;
1204;SDS011;592;48.764;9.174;2022-11-20T12:05:23;6.63;;;2.23;;
1204;SDS011;592;48.764;9.174;2022-11-20T12:07:55;3.63;;;1.37;;
1204;SDS011;592;48.764;9.174;2022-11-20T12:10:33;4.43;;;1.90;;
1204;SDS011;592;48.764;9.174;2022-11-20T12:13:08;4.47;;;1.60;;
1204;SDS011;592;48.764;9.174;2022-11-20T12:15:42;4.00;;;1.73;;
1204;SDS011;592;48.764;9.174;2022-11-20T12:18:14;5.80;;;1.77;;
1204;SDS011;592;48.764;9.174;2022-11-20T12:20:45;3.60;;;1.70;;
1204;SDS011;592;48.764;9.174;2022-11-20T12:23:24;3.67;;;2.00;;
1204;SDS011;592;48.764;9.174;2022-11-20T12:25:56;5.80;;;2.07;;
1204;SDS011;592;48.764;9.174;2022-11-20T12:28:30;6.33;;;2.00;;
1204;SDS011;592;48.764;9.174;2022-11-20T12:31:11;8.40;;;2.23;;
1204;SDS011;592;48.764;9.174;2022-11-20T12:34:03;3.30;;;1.20;;
1204;SDS011;592;48.764;9.174;2022-11-20T12:36:43;4.37;;;1.87;;
1204;SDS011;592;48.764;9.174;2022-11-20T12:39:17;4.80;;;1.40;;
1204;SDS011;592;48.764;9.174;2022-11-20T12:42:02;4.13;;;1.40;;
1204;SDS011;592;48.764;9.174;2022-11-20T12:45:10;6.57;;;2.17;;
1204;SDS011;592;48.764;9.174;2022-11-20T12:47:51;3.20;;;1.40;;
1204;SDS011;592;48.764;9.174;2022-11-20T12:50:40;3.67;;;1.60;;
1204;SDS011;592;48.764;9.174;2022-11-20T12:53:23;3.87;;;1.80;;
1204;SDS011;592;48.764;9.174;2022-11-20T12:55:56;3.10;;;1.03;;
1204;SDS011;592;48.764;9.174;2022-11-20T12:58:32;6.30;;;1.90;;
1204;SDS011;592;48.764;9.174;2022-11-20T13:01:09;3.90;;;1.70;;
1204;SDS011;592;48.764;9.174;2022-11-20T13:04:01;3.43;;;1.17;;
1204;SDS011;592;48.764;9.174;2022-11-20T13:06:38;5.33;;;1.60;;
1204;SDS011;592;48.764;9.174;2022-11-20T13:09:08;4.43;;;1.30;;
1204;SDS011;592;48.764;9.174;2022-11-20T13:11:40;3.53;;;2.00;;
1204;SDS011;592;48.764;9.174;2022-11-20T13:14:16;4.70;;;1.30;;
1204;SDS011;592;48.764;9.174;2022-11-20T13:16:53;3.40;;;1.50;;
1204;SDS011;592;48.764;9.174;2022-11-20T13:19:24;5.03;;;1.80;;
1204;SDS011;592;48.764;9.174;2022-11-20T13:21:53;7.93;;;3.47;;
1204;SDS011;592;48.764;9.174;2022-11-20T13:24:23;5.50;;;1.90;;
1204;SDS011;592;48.764;9.174;2022-11-20T13:27:02;3.63;;;1.33;;
1204;SDS011;592;48.764;9.174;2022-11-20T13:29:31;3.23;;;1.30;;
1204;SDS011;592;48.764;9.174;2022-11-20T13:32:03;4.00;;;1.37;;
1204;SDS011;592;48.764;9.174;2022-11-20T13:34:32;8.00;;;1.60;;
1204;SDS011;592;48.764;9.174;2022-11-20T13:37:00;5.00;;;2.03;;
1204;SDS011;592;48.764;9.174;2022-11-20T13:39:30;7.57;;;1.47;;
1204;SDS011;592;48.764;9.174;2022-11-20T13:41:59;7.00;;;1.50;;
1204;SDS011;592;48.764;9.174;2022-11-20T13:44:28;6.13;;;1.40;;
1204;SDS011;592;48.764;9.174;2022-11-20T13:47:02;3.10;;;1.20;;
1204;SDS011;592;48.764;9.174;2022-11-20T13:49:33;4.10;;;1.47;;
1204;SDS011;592;48.764;9.174;2022-11-20T13:52:27;5.23;;;1.60;;
1204;SDS011;592;48.764;9.174;2022-11-20T13:55:12;3.43;;;1.20;;
1204;SDS011;592;48.764;9.174;2022-11-20T14:00:57;4.27;;;1.40;;
1204;SDS011;592;48.764;9.174;2022-11-20T14:03:43;4.57;;;1.30;;
1204;SDS011;592;48.764;9.174;2022-11-20T14:06:11;5.67;;;1.40;;
1204;SDS011;592;48.764;9.174;2022-11-20T14:08:42;3.43;;;1.30;;
1204;SDS011;592;48.764;9.174;2022-11-20T14:11:15;3.33;;;1.57;;
1204;SDS011;592;48.764;9.174;2022-11-20T14:13:57;3.50;;;1.73;;
1204;SDS011;592;48.764;9.174;2022-11-20T14:16:26;3.50;;;1.43;;
1204;SDS011;592;48.764;9.174;2022-11-20T14:18:54;3.30;;;1.20;;
1204;SDS011;592;48.764;9.174;2022-11-20T14:21:23;3.63;;;1.90;;
1204;SDS011;592;48.764;9.174;2022-11-20T14:24:02;3.80;;;1.17;;
1204;SDS011;592;48.764;9.174;2022-11-20T14:26:31;3.90;;;1.20;;
1204;SDS011;592;48.764;9.174;2022-11-20T14:28:58;4.57;;;1.37;;
1204;SDS011;592;48.764;9.174;2022-11-20T14:31:26;3.63;;;1.60;;
1204;SDS011;592;48.764;9.174;2022-11-20T14:33:54;4.23;;;2.30;;
1204;SDS011;592;48.764;9.174;2022-11-20T14:36:23;3.77;;;1.63;;
1204;SDS011;592;48.764;9.174;2022-11-20T14:38:51;4.43;;;1.37;;
1204;SDS011;592;48.764;9.174;2022-11-20T14:41:19;4.37;;;1.40;;
1204;SDS011;592;48.764;9.174;2022-11-20T14:43:50;4.43;;;1.50;;
1204;SDS011;592;48.764;9.174;2022-11-20T14:46:20;7.93;;;1.73;;
1204;SDS011;592;48.764;9.174;2022-11-20T14:48:49;4.50;;;1.70;;
1204;SDS011;592;48.764;9.174;2022-11-20T14:51:29;5.47;;;1.60;;
1204;SDS011;592;48.764;9.174;2022-11-20T14:54:07;3.50;;;1.40;;
1204;SDS011;592;48.764;9.174;2022-11-20T14:56:37;8.27;;;2.43;;
1204;SDS011;592;48.764;9.174;2022-11-20T14:59:05;5.43;;;1.67;;
1204;SDS011;592;48.764;9.174;2022-11-20T15:01:33;6.10;;;2.63;;
1204;SDS011;592;48.764;9.174;2022-11-20T15:04:01;4.13;;;1.70;;
1204;SDS011;592;48.764;9.174;2022-11-20T15:06:31;6.00;;;3.27;;
1204;SDS011;592;48.764;9.174;2022-11-20T15:09:02;4.97;;;2.20;;
1204;SDS011;592;48.764;9.174;2022-11-20T15:11:29;6.30;;;3.17;;
1204;SDS011;592;48.764;9.174;2022-11-20T15:13:58;6.00;;;2.63;;
1204;SDS011;592;48.764;9.174;2022-11-20T15:16:30;4.20;;;2.10;;
1204;SDS011;592;48.764;9.174;2022-11-20T15:18:57;11.83;;;6.20;;
1204;SDS011;592;48.764;9.174;2022-11-20T15:21:28;6.80;;;4.00;;
1204;SDS011;592;48.764;9.174;2022-11-20T15:23:55;7.00;;;4.83;;
1204;SDS011;592;48.764;9.174;2022-11-20T15:26:23;13.20;;;6.90;;
1204;SDS011;592;48.764;9.174;2022-11-20T15:28:52;6.10;;;2.90;;
1204;SDS011;592;48.764;9.174;2022-11-20T15:31:20;4.97;;;2.43;;
1204;SDS011;592;48.764;9.174;2022-11-20T15:33:50;6.27;;;1.80;;
1204;SDS011;592;48.764;9.174;2022-11-20T15:36:17;6.60;;;1.80;;
1204;SDS011;592;48.764;9.174;2022-11-20T15:38:44;5.03;;;2.30;;
1204;SDS011;592;48.764;9.174;2022-11-20T15:41:10;3.90;;;1.63;;
1204;SDS011;592;48.764;9.174;2022-11-20T15:43:37;4.83;;;2.00;;
1204;SDS011;592;48.764;9.174;2022-11-20T15:46:05;4.40;;;1.93;;
1204;SDS011;592;48.764;9.174;2022-11-20T15:48:36;3.50;;;1.60;;
1204;SDS011;592;48.764;9.174;2022-11-20T15:51:10;7.40;;;1.87;;